sensor_id;sensor_type;location;lat;lon;timestamp;P1;durP1;ratioP1;P2;durP2;ratioP2
53056;SDS011;38940;50.096;4.012;2023-04-23T13:40:46;2.30;;;1.20;;
53056;SDS011;38940;50.096;4.012;2023-04-23T13:43:12;4.18;;;1.60;;
53056;SDS011;38940;50.096;4.012;2023-04-23T13:45:38;6.13;;;2.28;;
53056;SDS011;38940;50.096;4.012;2023-04-23T13:48:04;2.73;;;1.07;;
53056;SDS011;38940;50.096;4.012;2023-04-23T13:50:31;2.20;;;1.30;;
53056;SDS011;38940;50.096;4.012;2023-04-23T13:52:58;4.13;;;1.85;;
53056;SDS011;38940;50.096;4.012;2023-04-23T13:55:26;3.47;;;1.67;;
53056;SDS011;38940;50.096;4.012;2023-04-23T13:57:52;1.67;;;1.20;;
53056;SDS011;38940;50.096;4.012;2023-04-23T14:00:22;3.95;;;1.30;;
53056;SDS011;38940;50.096;4.012;2023-04-23T14:02:48;2.50;;;1.20;;
53056;SDS011;38940;50.096;4.012;2023-04-23T14:05:14;2.15;;;0.98;;
53056;SDS011;38940;50.096;4.012;2023-04-23T14:07:40;3.25;;;1.48;;
53056;SDS011;38940;50.096;4.012;2023-04-23T14:10:06;2.65;;;1.30;;
53056;SDS011;38940;50.096;4.012;2023-04-23T14:12:32;1.33;;;0.70;;
53056;SDS011;38940;50.096;4.012;2023-04-23T14:14:58;2.70;;;0.88;;
53056;SDS011;38940;50.096;4.012;2023-04-23T14:17:24;2.27;;;1.20;;
53056;SDS011;38940;50.096;4.012;2023-04-23T14:19:50;1.70;;;1.10;;
53056;SDS011;38940;50.096;4.012;2023-04-23T14:22:16;2.00;;;1.13;;
53056;SDS011;38940;50.096;4.012;2023-04-23T14:24:45;1.30;;;0.90;;
53056;SDS011;38940;50.096;4.012;2023-04-23T14:27:14;2.17;;;1.17;;
53056;SDS011;38940;50.096;4.012;2023-04-23T14:29:50;1.93;;;1.20;;
53056;SDS011;38940;50.096;4.012;2023-04-23T14:32:16;2.33;;;1.02;;
53056;SDS011;38940;50.096;4.012;2023-04-23T14:34:43;2.70;;;1.10;;
53056;SDS011;38940;50.096;4.012;2023-04-23T14:37:09;2.67;;;1.10;;
53056;SDS011;38940;50.096;4.012;2023-04-23T14:39:35;1.38;;;0.95;;
53056;SDS011;38940;50.096;4.012;2023-04-23T14:42:01;2.72;;;1.00;;
53056;SDS011;38940;50.096;4.012;2023-04-23T14:44:27;4.70;;;1.20;;
53056;SDS011;38940;50.096;4.012;2023-04-23T14:46:53;1.77;;;1.08;;
53056;SDS011;38940;50.096;4.012;2023-04-23T14:49:19;1.33;;;0.90;;
53056;SDS011;38940;50.096;4.012;2023-04-23T14:51:49;2.20;;;1.30;;
53056;SDS011;38940;50.096;4.012;2023-04-23T14:54:18;2.10;;;1.00;;
53056;SDS011;38940;50.096;4.012;2023-04-23T14:56:44;1.77;;;1.10;;
53056;SDS011;38940;50.096;4.012;2023-04-23T14:59:10;3.20;;;1.05;;
53056;SDS011;38940;50.096;4.012;2023-04-23T15:01:36;5.38;;;1.25;;
53056;SDS011;38940;50.096;4.012;2023-04-23T15:04:02;1.25;;;0.70;;
53056;SDS011;38940;50.096;4.012;2023-04-23T15:06:28;1.20;;;0.75;;
53056;SDS011;38940;50.096;4.012;2023-04-23T15:08:54;2.10;;;1.00;;
53056;SDS011;38940;50.096;4.012;2023-04-23T15:11:20;2.63;;;0.73;;
53056;SDS011;38940;50.096;4.012;2023-04-23T15:16:23;2.40;;;0.70;;
53056;SDS011;38940;50.096;4.012;2023-04-23T15:18:50;2.78;;;0.70;;
53056;SDS011;38940;50.096;4.012;2023-04-23T15:21:16;1.13;;;1.00;;
53056;SDS011;38940;50.096;4.012;2023-04-23T15:23:42;2.10;;;0.80;;
53056;SDS011;38940;50.096;4.012;2023-04-23T15:26:08;1.10;;;0.77;;
53056;SDS011;38940;50.096;4.012;2023-04-23T15:28:34;1.25;;;0.80;;
53056;SDS011;38940;50.096;4.012;2023-04-23T15:31:00;1.63;;;0.63;;
53056;SDS011;38940;50.096;4.012;2023-04-23T15:33:26;3.75;;;0.65;;
53056;SDS011;38940;50.096;4.012;2023-04-23T15:35:53;2.22;;;0.80;;
53056;SDS011;38940;50.096;4.012;2023-04-23T15:38:20;1.75;;;0.70;;
53056;SDS011;38940;50.096;4.012;2023-04-23T15:40:46;0.80;;;0.60;;
53056;SDS011;38940;50.096;4.012;2023-04-23T15:43:13;0.60;;;0.43;;
53056;SDS011;38940;50.096;4.012;2023-04-23T15:45:40;0.70;;;0.50;;
53056;SDS011;38940;50.096;4.012;2023-04-23T15:48:07;1.00;;;0.40;;
53056;SDS011;38940;50.096;4.012;2023-04-23T15:50:33;1.23;;;0.70;;
53056;SDS011;38940;50.096;4.012;2023-04-23T15:52:59;1.35;;;0.70;;
53056;SDS011;38940;50.096;4.012;2023-04-23T15:55:26;0.80;;;0.47;;
53056;SDS011;38940;50.096;4.012;2023-04-23T15:57:52;3.28;;;0.50;;
53056;SDS011;38940;50.096;4.012;2023-04-23T16:00:18;0.75;;;0.40;;
53056;SDS011;38940;50.096;4.012;2023-04-23T16:02:44;1.92;;;0.40;;
53056;SDS011;38940;50.096;4.012;2023-04-23T16:05:10;1.13;;;0.60;;
53056;SDS011;38940;50.096;4.012;2023-04-23T16:07:36;1.43;;;0.70;;
53056;SDS011;38940;50.096;4.012;2023-04-23T16:10:03;0.40;;;0.30;;
53056;SDS011;38940;50.096;4.012;2023-04-23T16:12:29;1.30;;;0.50;;
53056;SDS011;38940;50.096;4.012;2023-04-23T16:14:56;1.20;;;0.40;;
53056;SDS011;38940;50.096;4.012;2023-04-23T16:17:22;0.30;;;0.20;;
53056;SDS011;38940;50.096;4.012;2023-04-23T16:19:48;1.90;;;0.30;;
53056;SDS011;38940;50.096;4.012;2023-04-23T16:22:14;1.33;;;0.20;;
53056;SDS011;38940;50.096;4.012;2023-04-23T16:24:41;0.22;;;0.20;;
53056;SDS011;38940;50.096;4.012;2023-04-23T16:27:08;0.30;;;0.20;;
53056;SDS011;38940;50.096;4.012;2023-04-23T16:29:35;1.10;;;0.17;;
53056;SDS011;38940;50.096;4.012;2023-04-23T16:32:01;0.40;;;0.20;;
53056;SDS011;38940;50.096;4.012;2023-04-23T16:34:27;1.27;;;0.30;;
53056;SDS011;38940;50.096;4.012;2023-04-23T16:36:53;0.80;;;0.20;;
53056;SDS011;38940;50.096;4.012;2023-04-23T16:39:19;0.70;;;0.25;;
53056;SDS011;38940;50.096;4.012;2023-04-23T16:41:45;1.20;;;0.40;;
53056;SDS011;38940;50.096;4.012;2023-04-23T16:44:11;0.82;;;0.20;;
53056;SDS011;38940;50.096;4.012;2023-04-23T16:46:37;0.50;;;0.30;;
53056;SDS011;38940;50.096;4.012;2023-04-23T16:49:03;1.25;;;0.20;;
53056;SDS011;38940;50.096;4.012;2023-04-23T16:51:29;2.88;;;0.30;;
53056;SDS011;38940;50.096;4.012;2023-04-23T16:53:56;1.15;;;0.32;;
53056;SDS011;38940;50.096;4.012;2023-04-23T16:56:22;0.63;;;0.30;;
53056;SDS011;38940;50.096;4.012;2023-04-23T16:58:48;1.40;;;0.50;;
53056;SDS011;38940;50.096;4.012;2023-04-23T17:01:15;0.98;;;0.30;;
53056;SDS011;38940;50.096;4.012;2023-04-23T17:03:41;0.63;;;0.30;;
53056;SDS011;38940;50.096;4.012;2023-04-23T17:06:11;0.77;;;0.38;;
53056;SDS011;38940;50.096;4.012;2023-04-23T17:08:42;0.50;;;0.30;;
53056;SDS011;38940;50.096;4.012;2023-04-23T17:11:08;2.85;;;0.30;;
53056;SDS011;38940;50.096;4.012;2023-04-23T17:13:35;0.52;;;0.30;;
53056;SDS011;38940;50.096;4.012;2023-04-23T17:16:01;1.20;;;0.33;;
53056;SDS011;38940;50.096;4.012;2023-04-23T17:18:27;0.52;;;0.20;;
53056;SDS011;38940;50.096;4.012;2023-04-23T17:20:53;2.27;;;0.93;;
53056;SDS011;38940;50.096;4.012;2023-04-23T17:23:19;6.90;;;2.60;;
53056;SDS011;38940;50.096;4.012;2023-04-23T17:25:45;0.98;;;0.40;;
53056;SDS011;38940;50.096;4.012;2023-04-23T17:28:11;4.85;;;2.60;;
53056;SDS011;38940;50.096;4.012;2023-04-23T17:30:37;2.60;;;1.48;;
53056;SDS011;38940;50.096;4.012;2023-04-23T17:33:03;5.03;;;2.05;;
53056;SDS011;38940;50.096;4.012;2023-04-23T17:35:29;1.00;;;0.40;;
53056;SDS011;38940;50.096;4.012;2023-04-23T17:37:55;1.00;;;0.40;;
53056;SDS011;38940;50.096;4.012;2023-04-23T17:40:21;2.10;;;0.30;;
53056;SDS011;38940;50.096;4.012;2023-04-23T17:42:47;1.40;;;0.50;;
53056;SDS011;38940;50.096;4.012;2023-04-23T17:45:13;1.35;;;0.52;;
53056;SDS011;38940;50.096;4.012;2023-04-23T17:47:39;2.10;;;0.40;;
53056;SDS011;38940;50.096;4.012;2023-04-23T17:50:05;1.48;;;0.50;;
53056;SDS011;38940;50.096;4.012;2023-04-23T17:52:34;1.87;;;0.40;;
53056;SDS011;38940;50.096;4.012;2023-04-23T17:55:00;1.90;;;0.68;;
53056;SDS011;38940;50.096;4.012;2023-04-23T17:57:26;2.22;;;0.70;;
53056;SDS011;38940;50.096;4.012;2023-04-23T17:59:52;2.40;;;0.50;;
53056;SDS011;38940;50.096;4.012;2023-04-23T18:02:18;1.80;;;0.60;;
53056;SDS011;38940;50.096;4.012;2023-04-23T18:04:44;2.85;;;0.70;;
53056;SDS011;38940;50.096;4.012;2023-04-23T18:07:10;1.50;;;0.60;;
53056;SDS011;38940;50.096;4.012;2023-04-23T18:09:36;3.20;;;0.60;;
53056;SDS011;38940;50.096;4.012;2023-04-23T18:12:03;0.47;;;0.40;;
53056;SDS011;38940;50.096;4.012;2023-04-23T18:14:29;1.73;;;0.70;;
53056;SDS011;38940;50.096;4.012;2023-04-23T18:16:55;1.77;;;0.90;;
53056;SDS011;38940;50.096;4.012;2023-04-23T18:19:20;2.95;;;0.90;;
53056;SDS011;38940;50.096;4.012;2023-04-23T18:21:46;3.30;;;1.05;;
53056;SDS011;38940;50.096;4.012;2023-04-23T18:24:13;2.50;;;0.60;;
53056;SDS011;38940;50.096;4.012;2023-04-23T18:26:42;2.00;;;0.40;;
53056;SDS011;38940;50.096;4.012;2023-04-23T18:29:08;3.58;;;0.80;;
53056;SDS011;38940;50.096;4.012;2023-04-23T18:31:34;1.55;;;0.70;;
53056;SDS011;38940;50.096;4.012;2023-04-23T18:34:01;0.88;;;0.60;;
53056;SDS011;38940;50.096;4.012;2023-04-23T18:36:37;1.20;;;0.65;;
53056;SDS011;38940;50.096;4.012;2023-04-23T18:39:06;2.07;;;0.80;;
53056;SDS011;38940;50.096;4.012;2023-04-23T18:41:32;1.98;;;0.75;;
53056;SDS011;38940;50.096;4.012;2023-04-23T18:43:59;1.00;;;0.55;;
53056;SDS011;38940;50.096;4.012;2023-04-23T18:46:26;1.40;;;0.70;;
53056;SDS011;38940;50.096;4.012;2023-04-23T18:49:05;2.05;;;0.50;;
53056;SDS011;38940;50.096;4.012;2023-04-23T18:51:43;2.20;;;0.60;;
53056;SDS011;38940;50.096;4.012;2023-04-23T18:54:10;1.27;;;0.60;;
53056;SDS011;38940;50.096;4.012;2023-04-23T18:56:39;2.90;;;0.52;;
53056;SDS011;38940;50.096;4.012;2023-04-23T18:59:05;1.30;;;0.60;;
53056;SDS011;38940;50.096;4.012;2023-04-23T19:01:31;2.10;;;0.60;;
53056;SDS011;38940;50.096;4.012;2023-04-23T19:03:57;1.95;;;0.57;;
53056;SDS011;38940;50.096;4.012;2023-04-23T19:06:23;2.00;;;0.40;;
53056;SDS011;38940;50.096;4.012;2023-04-23T19:08:50;1.50;;;0.57;;
53056;SDS011;38940;50.096;4.012;2023-04-23T19:11:16;1.08;;;0.57;;
53056;SDS011;38940;50.096;4.012;2023-04-23T19:13:42;2.35;;;0.70;;
53056;SDS011;38940;50.096;4.012;2023-04-23T19:16:08;0.95;;;0.50;;
53056;SDS011;38940;50.096;4.012;2023-04-23T19:18:35;1.17;;;0.60;;
53056;SDS011;38940;50.096;4.012;2023-04-23T19:21:01;1.45;;;0.55;;
53056;SDS011;38940;50.096;4.012;2023-04-23T19:23:28;0.93;;;0.60;;
53056;SDS011;38940;50.096;4.012;2023-04-23T19:25:54;0.55;;;0.43;;
53056;SDS011;38940;50.096;4.012;2023-04-23T19:28:21;4.47;;;1.30;;
53056;SDS011;38940;50.096;4.012;2023-04-23T19:30:48;3.25;;;1.10;;
53056;SDS011;38940;50.096;4.012;2023-04-23T19:33:15;1.67;;;0.73;;
53056;SDS011;38940;50.096;4.012;2023-04-23T19:35:41;4.47;;;1.30;;
53056;SDS011;38940;50.096;4.012;2023-04-23T19:38:07;2.90;;;1.00;;
53056;SDS011;38940;50.096;4.012;2023-04-23T19:40:33;2.10;;;1.15;;
53056;SDS011;38940;50.096;4.012;2023-04-23T19:42:59;3.45;;;0.90;;
53056;SDS011;38940;50.096;4.012;2023-04-23T19:45:25;2.50;;;0.80;;
53056;SDS011;38940;50.096;4.012;2023-04-23T19:47:53;2.17;;;0.90;;
53056;SDS011;38940;50.096;4.012;2023-04-23T19:50:20;1.40;;;0.68;;
53056;SDS011;38940;50.096;4.012;2023-04-23T19:52:46;0.68;;;0.50;;
53056;SDS011;38940;50.096;4.012;2023-04-23T19:55:12;2.40;;;0.80;;
53056;SDS011;38940;50.096;4.012;2023-04-23T19:57:38;1.63;;;0.60;;
53056;SDS011;38940;50.096;4.012;2023-04-23T20:00:05;2.60;;;0.60;;
53056;SDS011;38940;50.096;4.012;2023-04-23T20:02:31;2.08;;;0.90;;
53056;SDS011;38940;50.096;4.012;2023-04-23T20:04:57;2.38;;;1.05;;
53056;SDS011;38940;50.096;4.012;2023-04-23T20:07:24;2.58;;;0.88;;
53056;SDS011;38940;50.096;4.012;2023-04-23T20:09:50;1.52;;;0.80;;
53056;SDS011;38940;50.096;4.012;2023-04-23T20:12:16;3.55;;;1.50;;
53056;SDS011;38940;50.096;4.012;2023-04-23T20:14:43;3.60;;;1.10;;
53056;SDS011;38940;50.096;4.012;2023-04-23T20:17:09;5.32;;;1.55;;
53056;SDS011;38940;50.096;4.012;2023-04-23T20:19:35;4.72;;;2.15;;
53056;SDS011;38940;50.096;4.012;2023-04-23T20:22:02;3.38;;;1.42;;
53056;SDS011;38940;50.096;4.012;2023-04-23T20:24:28;10.23;;;3.42;;
53056;SDS011;38940;50.096;4.012;2023-04-23T20:26:54;5.90;;;1.95;;
53056;SDS011;38940;50.096;4.012;2023-04-23T20:29:22;6.15;;;1.92;;
53056;SDS011;38940;50.096;4.012;2023-04-23T20:31:48;4.50;;;1.70;;
53056;SDS011;38940;50.096;4.012;2023-04-23T20:34:14;7.10;;;2.53;;
53056;SDS011;38940;50.096;4.012;2023-04-23T20:36:40;8.27;;;2.63;;
53056;SDS011;38940;50.096;4.012;2023-04-23T20:39:07;7.90;;;2.95;;
53056;SDS011;38940;50.096;4.012;2023-04-23T20:41:33;3.70;;;1.95;;
53056;SDS011;38940;50.096;4.012;2023-04-23T20:44:00;6.22;;;2.55;;
53056;SDS011;38940;50.096;4.012;2023-04-23T20:46:27;4.28;;;2.40;;
53056;SDS011;38940;50.096;4.012;2023-04-23T20:48:59;7.18;;;3.20;;
53056;SDS011;38940;50.096;4.012;2023-04-23T20:51:27;7.90;;;3.33;;
53056;SDS011;38940;50.096;4.012;2023-04-23T20:53:53;4.80;;;2.67;;
53056;SDS011;38940;50.096;4.012;2023-04-23T20:56:21;5.53;;;3.50;;
53056;SDS011;38940;50.096;4.012;2023-04-23T20:58:47;8.35;;;3.58;;
53056;SDS011;38940;50.096;4.012;2023-04-23T21:01:13;8.07;;;3.47;;
53056;SDS011;38940;50.096;4.012;2023-04-23T21:03:39;10.82;;;3.45;;
53056;SDS011;38940;50.096;4.012;2023-04-23T21:06:06;8.07;;;3.08;;
53056;SDS011;38940;50.096;4.012;2023-04-23T21:08:32;7.68;;;3.33;;
53056;SDS011;38940;50.096;4.012;2023-04-23T21:10:59;11.37;;;4.40;;
53056;SDS011;38940;50.096;4.012;2023-04-23T21:13:25;11.20;;;4.78;;
53056;SDS011;38940;50.096;4.012;2023-04-23T21:15:51;6.50;;;3.30;;
53056;SDS011;38940;50.096;4.012;2023-04-23T21:18:17;8.50;;;3.92;;
53056;SDS011;38940;50.096;4.012;2023-04-23T21:20:43;8.38;;;3.78;;
53056;SDS011;38940;50.096;4.012;2023-04-23T21:23:12;9.65;;;4.68;;
53056;SDS011;38940;50.096;4.012;2023-04-23T21:25:38;9.10;;;3.35;;
53056;SDS011;38940;50.096;4.012;2023-04-23T21:28:04;10.10;;;3.90;;
53056;SDS011;38940;50.096;4.012;2023-04-23T21:30:50;9.05;;;3.40;;
53056;SDS011;38940;50.096;4.012;2023-04-23T21:33:17;7.47;;;3.10;;
53056;SDS011;38940;50.096;4.012;2023-04-23T21:35:43;9.02;;;3.53;;
53056;SDS011;38940;50.096;4.012;2023-04-23T21:38:09;8.60;;;3.33;;
53056;SDS011;38940;50.096;4.012;2023-04-23T21:40:36;6.82;;;3.80;;
53056;SDS011;38940;50.096;4.012;2023-04-23T21:43:02;7.95;;;3.20;;
53056;SDS011;38940;50.096;4.012;2023-04-23T21:45:28;6.50;;;3.20;;
53056;SDS011;38940;50.096;4.012;2023-04-23T21:47:54;7.27;;;3.43;;
53056;SDS011;38940;50.096;4.012;2023-04-23T21:50:21;5.33;;;2.90;;
53056;SDS011;38940;50.096;4.012;2023-04-23T21:52:48;9.10;;;3.00;;
53056;SDS011;38940;50.096;4.012;2023-04-23T21:55:17;6.63;;;3.25;;
53056;SDS011;38940;50.096;4.012;2023-04-23T21:57:44;5.85;;;3.05;;
53056;SDS011;38940;50.096;4.012;2023-04-23T22:00:10;4.38;;;2.83;;
53056;SDS011;38940;50.096;4.012;2023-04-23T22:02:38;6.47;;;3.03;;
53056;SDS011;38940;50.096;4.012;2023-04-23T22:05:05;5.90;;;3.20;;
53056;SDS011;38940;50.096;4.012;2023-04-23T22:07:32;6.45;;;3.45;;
53056;SDS011;38940;50.096;4.012;2023-04-23T22:10:03;6.13;;;3.35;;
53056;SDS011;38940;50.096;4.012;2023-04-23T22:12:29;7.15;;;3.53;;
53056;SDS011;38940;50.096;4.012;2023-04-23T22:14:55;7.05;;;3.60;;
53056;SDS011;38940;50.096;4.012;2023-04-23T22:17:21;8.23;;;3.50;;
53056;SDS011;38940;50.096;4.012;2023-04-23T22:19:49;7.55;;;3.45;;
53056;SDS011;38940;50.096;4.012;2023-04-23T22:22:16;9.43;;;4.10;;
53056;SDS011;38940;50.096;4.012;2023-04-23T22:24:42;7.70;;;4.20;;
53056;SDS011;38940;50.096;4.012;2023-04-23T22:27:08;9.33;;;4.20;;
53056;SDS011;38940;50.096;4.012;2023-04-23T22:29:34;10.13;;;3.80;;
53056;SDS011;38940;50.096;4.012;2023-04-23T22:32:00;7.47;;;3.60;;
53056;SDS011;38940;50.096;4.012;2023-04-23T22:34:26;9.15;;;3.97;;
53056;SDS011;38940;50.096;4.012;2023-04-23T22:36:52;10.00;;;4.18;;
53056;SDS011;38940;50.096;4.012;2023-04-23T22:39:18;6.57;;;3.60;;
53056;SDS011;38940;50.096;4.012;2023-04-23T22:41:44;9.18;;;4.32;;
53056;SDS011;38940;50.096;4.012;2023-04-23T22:44:10;8.88;;;4.05;;
53056;SDS011;38940;50.096;4.012;2023-04-23T22:46:36;8.60;;;3.97;;
53056;SDS011;38940;50.096;4.012;2023-04-23T22:49:02;7.47;;;3.77;;
53056;SDS011;38940;50.096;4.012;2023-04-23T22:51:31;8.30;;;4.03;;
53056;SDS011;38940;50.096;4.012;2023-04-23T22:54:00;8.77;;;4.10;;
53056;SDS011;38940;50.096;4.012;2023-04-23T22:56:26;8.60;;;4.30;;
53056;SDS011;38940;50.096;4.012;2023-04-23T22:58:52;7.72;;;4.00;;
53056;SDS011;38940;50.096;4.012;2023-04-23T23:01:18;8.80;;;4.07;;
53056;SDS011;38940;50.096;4.012;2023-04-23T23:03:44;6.88;;;3.85;;
53056;SDS011;38940;50.096;4.012;2023-04-23T23:06:10;10.50;;;4.70;;
53056;SDS011;38940;50.096;4.012;2023-04-23T23:08:36;11.52;;;4.70;;
53056;SDS011;38940;50.096;4.012;2023-04-23T23:11:02;7.63;;;3.97;;
53056;SDS011;38940;50.096;4.012;2023-04-23T23:13:28;7.50;;;4.07;;
53056;SDS011;38940;50.096;4.012;2023-04-23T23:15:54;11.45;;;4.53;;
53056;SDS011;38940;50.096;4.012;2023-04-23T23:18:24;9.10;;;4.68;;
53056;SDS011;38940;50.096;4.012;2023-04-23T23:20:50;10.50;;;4.55;;
53056;SDS011;38940;50.096;4.012;2023-04-23T23:23:16;10.23;;;4.65;;
53056;SDS011;38940;50.096;4.012;2023-04-23T23:25:42;10.30;;;5.05;;
53056;SDS011;38940;50.096;4.012;2023-04-23T23:28:08;9.00;;;4.60;;
53056;SDS011;38940;50.096;4.012;2023-04-23T23:30:34;8.30;;;4.30;;
53056;SDS011;38940;50.096;4.012;2023-04-23T23:33:00;9.77;;;4.37;;
53056;SDS011;38940;50.096;4.012;2023-04-23T23:35:26;8.48;;;4.35;;
53056;SDS011;38940;50.096;4.012;2023-04-23T23:37:52;8.32;;;4.63;;
53056;SDS011;38940;50.096;4.012;2023-04-23T23:40:18;9.13;;;4.15;;
53056;SDS011;38940;50.096;4.012;2023-04-23T23:42:44;9.02;;;4.57;;
53056;SDS011;38940;50.096;4.012;2023-04-23T23:45:10;9.75;;;4.72;;
53056;SDS011;38940;50.096;4.012;2023-04-23T23:47:36;10.57;;;5.45;;
53056;SDS011;38940;50.096;4.012;2023-04-23T23:50:02;8.43;;;4.57;;
53056;SDS011;38940;50.096;4.012;2023-04-23T23:52:28;8.77;;;4.50;;
53056;SDS011;38940;50.096;4.012;2023-04-23T23:54:54;9.25;;;5.07;;
53056;SDS011;38940;50.096;4.012;2023-04-23T23:57:20;13.63;;;4.72;;
53056;SDS011;38940;50.096;4.012;2023-04-23T23:59:46;9.07;;;4.93;;
